Airfield :
LOGIN :

Register | Disclaimer

   EN    FR    IT 

 










Legend :    VFR   Marginal VFR   IFR   Intensive IFR   Very Intensive IFR
Visi :
Ceiling :
>= 8 km
>= 3000ft
5 to 8 km
1000 to 3000 ft
1500m to 5 km
500 to 1000 ft
800 to 1500m
200 to 500 ft
< 800m
< 200 ft
Symbols :   Thunderstorms  Fog  Heavy snow  Heavy precipitations  Wind > 20 kt
SIGMETs :     Misc.  Thunderstorms  Icing  Turbulence  Mountain Waves  Volcanic Ashes






- Airport Elevation : 1558 ft
- IATA code : IOA


LGIO - Ioannina

CURRENT METAR :
  • 201520Z 29007KT 9999 FEW035 28/16 Q1012

EXPIRED METARs :
  • 201450Z AUTO 30008KT 270V330 //// // ////// 28/16 Q1012 RE//
  • 201420Z AUTO 29008KT 240V340 //// // ////// 29/16 Q1012 RE//
  • 201350Z AUTO 32007KT 270V330 //// // ////// 29/15 Q1012 RE//
  • 201320Z AUTO 30007KT 260V350 //// // ////// 30/13 Q1012 RE//
  • 201250Z VRB04KT 9999 FEW030 30/14 Q1012
  • 201220Z 02005KT 320V070 9999 FEW030 30/14 Q1012
  • 201150Z 10004KT 070V130 9999 FEW030 29/15 Q1012
  • 201120Z 10005KT 050V130 9999 FEW030 29/14 Q1012
  • 201050Z 10005KT 030V130 9999 FEW030 29/15 Q1012

TAF TAF LGIO
Valid from the 20 at 15:00 until the 21 at 00:00 UTC


201400Z 2015/2024 VRB03KT 9999 FEW025
PROB30
TEMPO 2015/2017 4000 TSRA FEW010 FEW018CB SCT020 SCT070



MET'MAP, your aeronautical weather chart ! - Copyright ORBIFLY December 2007 - Disclaimer

ORBIFLY MET'MAP TEAM :

Programming & Development : Alexandra Zaïnal
Original concept : Baudouin d'Aumeries
Technical & hardware support : Manuel Goepfert
Assistance : Marc-Olivier Méhu




SOURCES & CREDITS :

   NOAA